createdAt,value
2019-05-02T00:01:29.190Z,8.00
2019-05-02T00:03:58.866Z,8.00
2019-05-02T00:06:28.546Z,8.00
2019-05-02T00:08:58.038Z,7.90
2019-05-02T00:11:29.680Z,7.90
2019-05-02T00:13:59.870Z,7.90
2019-05-02T00:16:29.740Z,7.90
2019-05-02T00:18:59.229Z,7.90
2019-05-02T00:21:32.920Z,7.90
2019-05-02T00:24:03.061Z,7.80
2019-05-02T00:26:31.210Z,7.70
2019-05-02T00:29:00.670Z,7.70
2019-05-02T00:31:49.424Z,7.70
2019-05-02T00:34:19.320Z,7.70
2019-05-02T00:36:48.738Z,7.70
2019-05-02T00:39:18.165Z,7.60
2019-05-02T00:41:47.616Z,7.60
2019-05-02T00:44:17.119Z,7.60
2019-05-02T00:46:46.536Z,7.60
2019-05-02T00:49:15.989Z,7.60
2019-05-02T00:51:45.402Z,7.60
2019-05-02T00:54:19.187Z,7.50
2019-05-02T00:56:46.120Z,7.50
2019-05-02T00:59:15.613Z,7.50
2019-05-02T01:01:55.216Z,7.50
2019-05-02T01:04:27.501Z,7.50
2019-05-02T01:06:57.598Z,7.50
2019-05-02T01:09:27.232Z,7.50
2019-05-02T01:11:56.663Z,7.50
2019-05-02T01:14:27.163Z,7.40
2019-05-02T01:16:57.319Z,7.40
2019-05-02T01:19:27.179Z,7.40
2019-05-02T01:21:56.584Z,7.30
2019-05-02T01:24:26.007Z,7.30
2019-05-02T01:27:06.480Z,7.20
2019-05-02T01:29:41.041Z,7.20
2019-05-02T01:32:14.900Z,7.10
2019-05-02T01:35:00.974Z,7.00
2019-05-02T01:37:51.021Z,7.00
2019-05-02T01:40:19.328Z,7.00
2019-05-02T01:42:50.712Z,6.90
2019-05-02T01:45:19.905Z,6.90
2019-05-02T01:47:49.349Z,6.90
2019-05-02T01:50:18.869Z,6.90
2019-05-02T01:52:48.299Z,6.90
2019-05-02T01:55:21.133Z,6.90
2019-05-02T01:57:48.862Z,7.00
2019-05-02T02:00:18.811Z,7.00
2019-05-02T02:02:48.226Z,7.00
2019-05-02T02:05:17.722Z,7.00
2019-05-02T02:07:50.839Z,7.10
2019-05-02T02:10:19.874Z,7.00
2019-05-02T02:13:02.775Z,7.10
2019-05-02T02:15:25.203Z,7.00
2019-05-02T02:17:52.653Z,6.90
2019-05-02T02:20:26.445Z,6.80
2019-05-02T02:22:57.504Z,6.80
2019-05-02T02:25:32.348Z,6.70
2019-05-02T02:28:01.016Z,6.70
2019-05-02T02:30:30.522Z,6.70
2019-05-02T02:33:07.861Z,6.70
2019-05-02T02:35:31.463Z,6.70
2019-05-02T02:38:00.972Z,6.70
2019-05-02T02:40:33.661Z,6.70
2019-05-02T02:43:12.768Z,6.70
2019-05-02T02:45:58.122Z,6.60
2019-05-02T02:48:23.210Z,6.60
2019-05-02T02:50:52.713Z,6.60
2019-05-02T02:53:31.281Z,6.60
2019-05-02T02:56:04.235Z,6.50
2019-05-02T02:58:44.219Z,6.50
2019-05-02T03:01:05.913Z,6.50
2019-05-02T03:03:35.970Z,6.40
2019-05-02T03:06:07.815Z,6.40
2019-05-02T03:08:45.148Z,6.40
2019-05-02T03:11:09.448Z,6.40
2019-05-02T03:13:50.947Z,6.40
2019-05-02T03:16:13.408Z,6.40
2019-05-02T03:18:43.312Z,6.40
2019-05-02T03:21:20.083Z,6.50
2019-05-02T03:23:44.557Z,6.50
2019-05-02T03:26:15.527Z,6.40
2019-05-02T03:28:45.414Z,6.50
2019-05-02T03:31:28.261Z,6.50
2019-05-02T03:33:55.006Z,6.50
2019-05-02T03:36:28.614Z,6.50
2019-05-02T03:38:48.701Z,6.60
2019-05-02T03:41:20.727Z,6.60
2019-05-02T03:43:50.763Z,6.60
2019-05-02T03:46:22.509Z,6.60
2019-05-02T03:48:51.489Z,6.60
2019-05-02T03:51:24.714Z,6.70
2019-05-02T03:53:52.213Z,6.70
2019-05-02T03:56:21.775Z,6.70
2019-05-02T03:58:55.990Z,6.80
2019-05-02T04:01:23.989Z,6.80
2019-05-02T04:03:54.573Z,6.80
2019-05-02T04:06:24.251Z,6.80
2019-05-02T04:08:59.644Z,6.80
2019-05-02T04:11:26.202Z,6.80
2019-05-02T04:13:57.552Z,6.80
2019-05-02T04:16:48.701Z,6.80
2019-05-02T04:19:18.749Z,6.80
2019-05-02T04:21:52.681Z,6.90
2019-05-02T04:24:20.797Z,6.90
2019-05-02T04:26:56.032Z,6.90
2019-05-02T04:29:24.457Z,6.90
2019-05-02T04:31:54.372Z,6.90
2019-05-02T04:34:23.898Z,7.00
2019-05-02T04:37:01.087Z,7.10
2019-05-02T04:39:24.484Z,7.10
2019-05-02T04:41:53.991Z,7.20
2019-05-02T04:44:32.244Z,7.20
2019-05-02T04:47:02.698Z,7.30
2019-05-02T04:49:29.888Z,7.40
2019-05-02T04:52:06.141Z,7.40
2019-05-02T04:54:32.154Z,7.50
2019-05-02T04:57:02.467Z,7.50
2019-05-02T04:59:32.960Z,7.60
2019-05-02T05:02:02.365Z,7.60
2019-05-02T05:04:33.212Z,7.70
2019-05-02T05:07:03.313Z,7.90
2019-05-02T05:09:32.732Z,8.00
2019-05-02T05:12:02.763Z,8.10
2019-05-02T05:14:39.444Z,8.20
2019-05-02T05:17:03.405Z,8.30
2019-05-02T05:19:32.994Z,8.30
2019-05-02T05:22:05.254Z,8.40
2019-05-02T05:24:50.309Z,8.40
2019-05-02T05:27:22.859Z,8.50
2019-05-02T05:29:53.514Z,8.60
2019-05-02T05:32:22.054Z,8.70
2019-05-02T05:34:51.510Z,8.70
2019-05-02T05:37:21.013Z,8.80
2019-05-02T05:39:52.592Z,8.80
2019-05-02T05:42:23.468Z,8.90
2019-05-02T05:44:52.897Z,9.00
2019-05-02T05:47:22.322Z,9.10
2019-05-02T05:50:11.127Z,9.10
2019-05-02T05:52:42.400Z,9.20
2019-05-02T05:55:12.826Z,9.20
2019-05-02T05:57:43.323Z,9.30
2019-05-02T06:00:18.744Z,9.40
2019-05-02T06:02:53.830Z,9.40
2019-05-02T06:05:17.476Z,9.50
2019-05-02T06:07:47.425Z,9.50
2019-05-02T06:10:17.059Z,9.50
2019-05-02T06:12:46.576Z,9.60
2019-05-02T06:15:16.137Z,9.70
2019-05-02T06:17:45.563Z,9.70
2019-05-02T06:20:15.308Z,9.60
2019-05-02T06:22:44.815Z,9.60
2019-05-02T06:25:16.173Z,9.60
2019-05-02T06:27:45.587Z,9.70
2019-05-02T06:30:16.320Z,9.70
2019-05-02T06:32:49.999Z,9.80
2019-05-02T06:35:20.738Z,9.90
2019-05-02T06:37:50.144Z,9.90
2019-05-02T06:40:19.417Z,10.00
2019-05-02T06:42:49.187Z,10.10
2019-05-02T06:45:18.756Z,10.20
2019-05-02T06:47:48.186Z,10.30
2019-05-02T06:50:17.880Z,10.40
2019-05-02T06:52:47.305Z,10.40
2019-05-02T06:55:16.903Z,10.50
2019-05-02T06:57:46.403Z,10.50
2019-05-02T07:00:17.017Z,10.40
2019-05-02T07:02:46.468Z,10.40
2019-05-02T07:05:16.102Z,10.50
2019-05-02T07:07:45.562Z,10.50
2019-05-02T07:10:20.010Z,10.60
2019-05-02T07:12:51.231Z,10.60
2019-05-02T07:15:40.364Z,10.60
2019-05-02T07:18:12.284Z,10.70
2019-05-02T07:20:42.565Z,10.80
2019-05-02T07:23:16.448Z,10.80
2019-05-02T07:25:45.459Z,10.80
2019-05-02T07:28:14.857Z,10.90
2019-05-02T07:30:44.355Z,11.00
2019-05-02T07:33:14.144Z,11.20
2019-05-02T07:35:43.568Z,11.20
2019-05-02T07:38:13.024Z,11.30
2019-05-02T07:40:42.464Z,11.40
2019-05-02T07:43:13.488Z,11.40
2019-05-02T07:45:45.345Z,11.50
2019-05-02T07:48:17.901Z,11.40
2019-05-02T07:50:48.096Z,11.40
2019-05-02T07:53:18.276Z,11.40
2019-05-02T07:55:49.312Z,11.40
2019-05-02T07:58:19.174Z,11.40
2019-05-02T08:00:48.613Z,11.40
2019-05-02T08:03:18.067Z,11.40
2019-05-02T08:05:47.494Z,11.50
2019-05-02T08:08:16.944Z,11.50
2019-05-02T08:10:46.381Z,11.50
2019-05-02T08:13:17.440Z,11.50
2019-05-02T08:15:50.789Z,11.50
2019-05-02T08:18:18.217Z,11.50
2019-05-02T08:20:51.023Z,11.50
2019-05-02T08:23:20.592Z,11.40
2019-05-02T08:25:50.657Z,11.40
2019-05-02T08:28:21.834Z,11.40
2019-05-02T08:30:53.054Z,11.30
2019-05-02T08:33:22.640Z,11.40
2019-05-02T08:35:52.074Z,11.40
2019-05-02T08:38:21.637Z,11.40
2019-05-02T08:40:51.154Z,11.50
2019-05-02T08:43:20.591Z,11.40
2019-05-02T08:45:50.175Z,11.50
2019-05-02T08:48:22.440Z,11.50
2019-05-02T08:50:51.212Z,11.50
2019-05-02T08:53:22.272Z,11.60
2019-05-02T08:55:51.867Z,11.70
2019-05-02T08:58:21.305Z,11.70
2019-05-02T09:00:50.890Z,11.80
2019-05-02T09:03:20.442Z,11.70
2019-05-02T09:05:49.957Z,11.60
2019-05-02T09:08:19.377Z,11.60
2019-05-02T09:10:48.821Z,11.70
2019-05-02T09:13:26.494Z,11.70
2019-05-02T09:15:51.625Z,11.80
2019-05-02T09:18:22.313Z,11.90
2019-05-02T09:20:56.196Z,12.00
2019-05-02T09:23:27.392Z,12.20
2019-05-02T09:25:54.217Z,12.30
2019-05-02T09:28:25.380Z,12.40
2019-05-02T09:30:57.482Z,12.50
2019-05-02T09:33:26.690Z,12.60
2019-05-02T09:35:56.128Z,12.70
2019-05-02T09:38:25.557Z,12.80
2019-05-02T09:40:56.320Z,13.00
2019-05-02T09:43:29.447Z,13.10
2019-05-02T09:45:57.445Z,13.10
2019-05-02T09:48:27.049Z,13.20
2019-05-02T09:50:58.070Z,13.30
2019-05-02T09:53:27.643Z,13.30
2019-05-02T09:55:58.118Z,13.30
2019-05-02T09:58:27.719Z,13.40
2019-05-02T10:00:59.180Z,13.40
2019-05-02T10:03:28.742Z,13.50
2019-05-02T10:05:58.349Z,13.60
2019-05-02T10:08:28.179Z,13.60
2019-05-02T10:10:58.018Z,13.70
2019-05-02T10:13:27.453Z,13.60
2019-05-02T10:15:56.957Z,13.50
2019-05-02T10:18:30.151Z,13.40
2019-05-02T10:20:57.562Z,13.20
2019-05-02T10:23:27.355Z,13.10
2019-05-02T10:25:57.201Z,13.00
2019-05-02T10:28:26.646Z,12.90
2019-05-02T10:30:56.847Z,12.90
2019-05-02T10:33:28.044Z,13.00
2019-05-02T10:35:58.065Z,13.10
2019-05-02T10:38:27.496Z,13.20
2019-05-02T10:41:01.512Z,13.40
2019-05-02T10:43:28.532Z,13.40
2019-05-02T10:46:01.428Z,13.50
2019-05-02T10:48:33.000Z,13.60
2019-05-02T10:51:23.916Z,13.70
2019-05-02T10:53:52.711Z,13.80
2019-05-02T10:56:22.812Z,13.70
2019-05-02T10:58:52.578Z,13.70
2019-05-02T11:01:23.647Z,13.60
2019-05-02T11:03:54.779Z,13.70
2019-05-02T11:06:24.317Z,13.80
2019-05-02T11:08:53.781Z,13.90
2019-05-02T11:11:23.598Z,14.00
2019-05-02T11:14:01.133Z,13.90
2019-05-02T11:16:27.455Z,13.70
2019-05-02T11:19:04.008Z,13.50
2019-05-02T11:21:33.504Z,13.10
2019-05-02T11:24:03.413Z,12.80
2019-05-02T11:26:32.834Z,12.50
2019-05-02T11:29:03.089Z,12.40
2019-05-02T11:31:32.750Z,12.20
2019-05-02T11:34:02.493Z,12.10
2019-05-02T11:36:32.873Z,12.10
2019-05-02T11:39:14.233Z,12.10
2019-05-02T11:41:33.792Z,12.20
2019-05-02T11:44:03.227Z,12.30
2019-05-02T11:46:33.099Z,12.40
2019-05-02T11:49:02.706Z,12.50
2019-05-02T11:51:32.683Z,12.70
2019-05-02T11:54:05.203Z,12.70
2019-05-02T11:56:33.632Z,12.70
2019-05-02T11:59:03.123Z,12.50
2019-05-02T12:01:37.120Z,12.40
2019-05-02T12:04:07.696Z,12.50
2019-05-02T12:06:35.110Z,12.40
2019-05-02T12:09:08.548Z,12.40
2019-05-02T12:11:38.135Z,12.40
2019-05-02T12:14:07.648Z,12.40
2019-05-02T12:16:37.125Z,12.40
2019-05-02T12:19:11.464Z,12.40
2019-05-02T12:21:39.302Z,12.40
2019-05-02T12:24:08.965Z,12.40
2019-05-02T12:26:38.477Z,12.40
2019-05-02T12:29:07.975Z,12.40
2019-05-02T12:31:37.468Z,12.30
2019-05-02T12:34:08.136Z,12.40
2019-05-02T12:36:38.874Z,12.40
2019-05-02T12:39:09.436Z,12.40
2019-05-02T12:41:39.016Z,12.50
2019-05-02T12:44:08.523Z,12.50
2019-05-02T12:46:38.299Z,12.70
2019-05-02T12:49:07.839Z,12.70
2019-05-02T12:51:37.277Z,12.80
2019-05-02T12:54:06.843Z,12.90
2019-05-02T12:56:36.341Z,12.80
2019-05-02T12:59:06.221Z,12.90
2019-05-02T13:01:36.032Z,12.90
2019-05-02T13:04:12.246Z,13.00
2019-05-02T13:06:42.258Z,13.00
2019-05-02T13:09:13.271Z,13.10
2019-05-02T13:11:45.879Z,13.10
2019-05-02T13:14:19.629Z,13.10
2019-05-02T13:16:48.012Z,13.20
2019-05-02T13:19:17.972Z,13.10
2019-05-02T13:21:58.049Z,13.30
2019-05-02T13:24:29.142Z,13.20
2019-05-02T13:26:59.393Z,13.30
2019-05-02T13:29:27.167Z,13.30
2019-05-02T13:32:08.655Z,13.40
2019-05-02T13:34:43.678Z,13.40
2019-05-02T13:37:12.944Z,13.40
2019-05-02T13:39:44.101Z,13.30
2019-05-02T13:42:13.822Z,13.30
2019-05-02T13:45:02.311Z,13.20
2019-05-02T13:47:32.550Z,13.30
2019-05-02T13:50:03.931Z,13.40
2019-05-02T13:52:33.555Z,13.40
2019-05-02T13:55:04.082Z,13.40
2019-05-02T13:57:34.979Z,13.50
2019-05-02T14:00:10.026Z,13.60
2019-05-02T14:02:42.716Z,13.80
2019-05-02T14:05:15.197Z,13.90
2019-05-02T14:07:48.246Z,13.90
2019-05-02T14:10:22.907Z,14.00
2019-05-02T14:12:59.425Z,14.00
2019-05-02T14:15:32.418Z,14.00
2019-05-02T14:18:02.631Z,14.00
2019-05-02T14:20:33.042Z,14.10
2019-05-02T14:23:02.765Z,14.40
2019-05-02T14:25:32.358Z,14.50
2019-05-02T14:28:03.006Z,14.70
2019-05-02T14:30:39.536Z,14.60
2019-05-02T14:33:06.476Z,14.70
2019-05-02T14:35:37.794Z,14.90
2019-05-02T14:38:07.966Z,15.00
2019-05-02T14:40:52.114Z,14.90
2019-05-02T14:43:38.142Z,14.80
2019-05-02T14:46:06.705Z,14.80
2019-05-02T14:48:43.572Z,14.90
2019-05-02T14:51:11.953Z,14.90
2019-05-02T14:53:43.065Z,14.90
2019-05-02T14:56:32.691Z,14.90
2019-05-02T14:59:02.670Z,14.80
2019-05-02T15:01:32.328Z,14.70
2019-05-02T15:04:06.471Z,14.60
2019-05-02T15:06:33.866Z,14.70
2019-05-02T15:09:05.355Z,14.70
2019-05-02T15:11:35.097Z,14.70
2019-05-02T15:14:04.840Z,14.60
2019-05-02T15:16:42.226Z,14.70
2019-05-02T15:19:05.851Z,14.90
2019-05-02T15:21:47.145Z,15.00
2019-05-02T15:24:15.290Z,15.10
2019-05-02T15:26:44.781Z,15.10
2019-05-02T15:29:19.696Z,14.90
2019-05-02T15:31:57.938Z,14.60
2019-05-02T15:34:36.971Z,14.50
2019-05-02T15:37:02.889Z,14.50
2019-05-02T15:42:03.524Z,15.00
2019-05-02T15:44:33.017Z,15.30
2019-05-02T15:47:05.116Z,15.50
2019-05-02T15:49:36.603Z,15.60
2019-05-02T15:52:06.594Z,15.50
2019-05-02T15:54:36.112Z,15.30
2019-05-02T15:57:05.865Z,15.20
2019-05-02T15:59:43.180Z,15.20
2019-05-02T16:02:17.514Z,15.10
2019-05-02T16:04:46.170Z,15.10
2019-05-02T16:07:15.661Z,14.90
2019-05-02T16:09:45.095Z,14.90
2019-05-02T16:12:14.527Z,15.00
2019-05-02T16:14:44.103Z,15.20
2019-05-02T16:17:17.652Z,15.40
2019-05-02T16:19:46.490Z,15.60
2019-05-02T16:22:17.381Z,15.70
2019-05-02T16:24:48.821Z,15.80
2019-05-02T16:27:22.006Z,15.70
2019-05-02T16:29:49.382Z,15.50
2019-05-02T16:32:22.036Z,15.30
2019-05-02T16:34:54.702Z,15.10
2019-05-02T16:37:25.040Z,14.80
2019-05-02T16:39:56.155Z,14.60
2019-05-02T16:42:25.711Z,14.40
2019-05-02T16:44:55.243Z,14.10
2019-05-02T16:47:24.676Z,14.10
2019-05-02T16:49:56.391Z,14.10
2019-05-02T16:52:25.325Z,14.20
2019-05-02T16:54:54.784Z,14.20
2019-05-02T16:57:25.992Z,14.30
2019-05-02T17:00:01.160Z,14.30
2019-05-02T17:02:26.602Z,14.40
2019-05-02T17:05:00.212Z,14.40
2019-05-02T17:07:29.067Z,14.30
2019-05-02T17:10:02.599Z,14.30
2019-05-02T17:12:31.827Z,14.10
2019-05-02T17:15:19.197Z,14.10
2019-05-02T17:17:48.708Z,14.30
2019-05-02T17:20:18.521Z,14.50
2019-05-02T17:22:50.413Z,14.60
2019-05-02T17:25:19.352Z,14.70
2019-05-02T17:27:54.554Z,14.90
2019-05-02T17:30:22.402Z,14.90
2019-05-02T17:32:52.180Z,14.80
2019-05-02T17:35:22.237Z,14.60
2019-05-02T17:37:52.552Z,14.60
2019-05-02T17:40:25.928Z,14.60
2019-05-02T17:42:57.151Z,14.60
2019-05-02T17:45:25.034Z,14.50
2019-05-02T17:47:54.527Z,14.50
2019-05-02T17:50:28.702Z,14.60
2019-05-02T17:53:01.070Z,14.50
2019-05-02T17:55:34.580Z,14.50
2019-05-02T17:58:04.539Z,14.40
2019-05-02T18:00:35.000Z,14.20
2019-05-02T18:03:04.595Z,14.00
2019-05-02T18:05:35.813Z,13.80
2019-05-02T18:08:11.023Z,13.70
2019-05-02T18:10:37.358Z,13.60
2019-05-02T18:13:06.952Z,13.50
2019-05-02T18:15:36.633Z,13.30
2019-05-02T18:18:07.863Z,13.20
2019-05-02T18:20:42.893Z,13.10
2019-05-02T18:23:08.896Z,13.00
2019-05-02T18:25:38.708Z,12.90
2019-05-02T18:28:08.133Z,12.80
2019-05-02T18:30:37.631Z,12.70
2019-05-02T18:33:07.437Z,12.70
2019-05-02T18:35:37.295Z,12.60
2019-05-02T18:38:08.166Z,12.50
2019-05-02T18:40:37.682Z,12.40
2019-05-02T18:43:07.187Z,12.30
2019-05-02T18:45:36.635Z,12.20
2019-05-02T18:48:06.983Z,12.10
2019-05-02T18:50:44.405Z,12.10
2019-05-02T18:53:13.801Z,12.00
2019-05-02T18:55:43.542Z,12.00
2019-05-02T18:58:13.068Z,12.00
2019-05-02T19:00:42.687Z,11.90
2019-05-02T19:03:16.995Z,11.80
2019-05-02T19:05:46.544Z,11.80
2019-05-02T19:08:27.914Z,11.70
2019-05-02T19:11:04.106Z,11.70
2019-05-02T19:13:18.032Z,11.60
2019-05-02T19:15:49.031Z,11.60
2019-05-02T19:18:21.081Z,11.50
2019-05-02T19:20:57.353Z,11.50
2019-05-02T19:23:26.754Z,11.50
2019-05-02T19:25:56.334Z,11.50
2019-05-02T19:28:36.776Z,11.50
2019-05-02T19:31:02.997Z,11.50
2019-05-02T19:33:37.491Z,11.50
2019-05-02T19:36:04.334Z,11.50
2019-05-02T19:38:34.857Z,11.50
2019-05-02T19:41:08.680Z,11.50
2019-05-02T19:43:40.256Z,11.40
2019-05-02T19:46:06.943Z,11.40
2019-05-02T19:48:37.314Z,11.40
2019-05-02T19:51:16.233Z,11.30
2019-05-02T19:53:39.379Z,11.30
2019-05-02T19:56:08.877Z,11.30
2019-05-02T19:58:42.601Z,11.30
2019-05-02T20:01:09.687Z,11.30
2019-05-02T20:03:39.611Z,11.20
2019-05-02T20:06:09.119Z,11.30
2019-05-02T20:08:38.618Z,11.20
2019-05-02T20:11:08.185Z,11.10
2019-05-02T20:13:38.136Z,11.10
2019-05-02T20:16:11.881Z,11.00
2019-05-02T20:18:46.864Z,11.00
2019-05-02T20:21:24.229Z,10.90
2019-05-02T20:23:51.220Z,10.80
2019-05-02T20:26:22.096Z,10.70
2019-05-02T20:28:52.798Z,10.60
2019-05-02T20:31:24.137Z,10.50
2019-05-02T20:33:53.560Z,10.40
2019-05-02T20:36:23.303Z,10.30
2019-05-02T20:38:52.764Z,10.30
2019-05-02T20:41:22.647Z,10.20
2019-05-02T20:44:12.199Z,10.10
2019-05-02T20:46:42.200Z,10.10
2019-05-02T20:49:12.812Z,10.00
2019-05-02T20:51:42.553Z,10.00
2019-05-02T20:54:12.534Z,10.00
2019-05-02T20:56:42.605Z,10.00
2019-05-02T20:59:12.786Z,10.00
2019-05-02T21:01:42.984Z,10.00
2019-05-02T21:04:12.697Z,10.00
2019-05-02T21:06:55.826Z,10.00
2019-05-02T21:09:33.163Z,9.90
2019-05-02T21:12:04.288Z,9.90
2019-05-02T21:14:33.984Z,9.90
2019-05-02T21:17:03.694Z,9.90
2019-05-02T21:19:33.343Z,9.80
2019-05-02T21:22:07.658Z,9.70
2019-05-02T21:24:37.164Z,9.60
2019-05-02T21:27:06.793Z,9.60
2019-05-02T21:29:37.714Z,9.60
2019-05-02T21:32:07.308Z,9.50
2019-05-02T21:34:37.326Z,9.50
2019-05-02T21:37:06.892Z,9.40
2019-05-02T21:39:36.350Z,9.40
2019-05-02T21:42:06.046Z,9.40
2019-05-02T21:44:35.524Z,9.30
2019-05-02T21:47:05.832Z,9.30
2019-05-02T21:49:55.366Z,9.30
2019-05-02T21:52:29.423Z,9.20
2019-05-02T21:55:01.930Z,9.20
2019-05-02T21:57:32.193Z,9.10
2019-05-02T22:00:02.560Z,9.00
2019-05-02T22:02:32.564Z,9.00
2019-05-02T22:05:02.250Z,9.00
2019-05-02T22:07:32.331Z,8.90
2019-05-02T22:10:03.045Z,8.90
2019-05-02T22:12:32.724Z,8.90
2019-05-02T22:15:02.426Z,8.90
2019-05-02T22:17:32.219Z,8.90
2019-05-02T22:20:02.065Z,8.90
2019-05-02T22:22:31.760Z,9.00
2019-05-02T22:25:02.859Z,9.00
2019-05-02T22:27:32.532Z,9.00
2019-05-02T22:30:02.248Z,9.00
2019-05-02T22:32:32.105Z,9.00
2019-05-02T22:35:01.963Z,9.00
2019-05-02T22:37:32.733Z,9.10
2019-05-02T22:40:04.104Z,9.10
2019-05-02T22:42:33.719Z,9.20
2019-05-02T22:45:04.638Z,9.30
2019-05-02T22:47:34.456Z,9.30
2019-05-02T22:50:09.175Z,9.40
2019-05-02T22:52:38.643Z,9.40
2019-05-02T22:55:08.657Z,9.40
2019-05-02T22:57:38.146Z,9.50
2019-05-02T23:00:09.027Z,9.50
2019-05-02T23:02:38.903Z,9.50
2019-05-02T23:05:08.698Z,9.50
2019-05-02T23:07:38.206Z,9.40
2019-05-02T23:10:07.983Z,9.50
2019-05-02T23:12:37.868Z,9.40
2019-05-02T23:15:08.089Z,9.40
2019-05-02T23:17:37.545Z,9.50
2019-05-02T23:20:08.364Z,9.50
2019-05-02T23:22:37.845Z,9.50
2019-05-02T23:25:09.414Z,9.50
2019-05-02T23:27:49.470Z,9.50
2019-05-02T23:30:22.516Z,9.50
2019-05-02T23:32:52.258Z,9.50
2019-05-02T23:35:21.856Z,9.60
2019-05-02T23:37:52.960Z,9.60
2019-05-02T23:40:22.759Z,9.60
2019-05-02T23:42:52.512Z,9.60
2019-05-02T23:45:22.597Z,9.60
2019-05-02T23:47:52.753Z,9.60
2019-05-02T23:50:22.940Z,9.60
2019-05-02T23:52:52.830Z,9.60
2019-05-02T23:55:22.825Z,9.60
2019-05-02T23:57:52.577Z,9.60
